Time;durP1;ratioP1;P1;durP2;ratioP2;P2;SDS_P1;SDS_P2;PMS_P1;PMS_P2;Temp;Humidity;BMP_temperature;BMP_pressure;BME280_temperature;BME280_humidity;BME280_pressure;Samples;Min_cycle;Max_cycle;Signal;HPM_P1;HPM_P2
2024/02/10 00:00:55;;;;;;;10.10;5.75;;;;;;;;;;5012597;28;20194;-75
2024/02/10 00:03:22;;;;;;;13.32;6.05;;;;;;;;;;5025596;28;20214;-75
2024/02/10 00:05:47;;;;;;;10.73;5.47;;;;;;;;;;5027634;28;20190;-75
2024/02/10 00:08:13;;;;;;;16.08;6.15;;;;;;;;;;5027173;28;20202;-76
2024/02/10 00:10:41;;;;;;;10.13;5.63;;;;;;;;;;5012472;28;20274;-75
2024/02/10 00:13:07;;;;;;;15.30;5.80;;;;;;;;;;5035968;28;20185;-75
2024/02/10 00:15:32;;;;;;;14.02;6.22;;;;;;;;;;5014567;28;20197;-75
2024/02/10 00:17:58;;;;;;;16.38;6.20;;;;;;;;;;5009347;28;20226;-75
2024/02/10 00:20:25;;;;;;;10.68;5.85;;;;;;;;;;5032121;28;20554;-75
2024/02/10 00:22:52;;;;;;;12.40;5.97;;;;;;;;;;5030333;28;20193;-75
2024/02/10 00:25:18;;;;;;;14.77;5.80;;;;;;;;;;5032021;28;20267;-75
2024/02/10 00:27:46;;;;;;;16.02;6.28;;;;;;;;;;5046862;28;20231;-75
2024/02/10 00:30:16;;;;;;;16.10;6.05;;;;;;;;;;5038967;28;20178;-76
2024/02/10 00:32:42;;;;;;;11.02;6.60;;;;;;;;;;5028748;28;20178;-76
2024/02/10 00:35:08;;;;;;;10.70;5.95;;;;;;;;;;5026416;28;20182;-75
2024/02/10 00:37:34;;;;;;;12.48;6.22;;;;;;;;;;5016130;28;20216;-76
2024/02/10 00:40:01;;;;;;;13.80;6.78;;;;;;;;;;5048274;28;20684;-77
2024/02/10 00:42:28;;;;;;;16.50;7.60;;;;;;;;;;5022574;28;20189;-77
2024/02/10 00:44:56;;;;;;;10.63;6.80;;;;;;;;;;5027148;28;20214;-77
2024/02/10 00:47:22;;;;;;;13.32;6.25;;;;;;;;;;5025900;28;20197;-77
2024/02/10 00:49:48;;;;;;;12.13;6.22;;;;;;;;;;5033033;28;20211;-77
2024/02/10 00:52:17;;;;;;;14.05;6.90;;;;;;;;;;5023365;28;20681;-77
2024/02/10 00:54:45;;;;;;;13.30;6.68;;;;;;;;;;5032182;28;20201;-77
2024/02/10 00:57:11;;;;;;;14.55;6.68;;;;;;;;;;5035652;28;20324;-77
2024/02/10 00:59:40;;;;;;;14.15;6.70;;;;;;;;;;5027111;28;20732;-77
2024/02/10 01:02:08;;;;;;;12.80;6.60;;;;;;;;;;5013968;28;20268;-77
2024/02/10 01:04:34;;;;;;;20.20;7.32;;;;;;;;;;5013191;28;20230;-77
2024/02/10 01:07:01;;;;;;;15.63;7.28;;;;;;;;;;5020820;28;20240;-77
2024/02/10 01:09:28;;;;;;;16.52;7.45;;;;;;;;;;5037742;28;20195;-77
2024/02/10 01:11:53;;;;;;;16.20;7.47;;;;;;;;;;5018953;28;20284;-77
2024/02/10 01:14:18;;;;;;;14.10;7.47;;;;;;;;;;5036139;28;20215;-77
2024/02/10 01:16:44;;;;;;;17.42;7.28;;;;;;;;;;5033725;28;20208;-77
2024/02/10 01:19:10;;;;;;;20.23;7.10;;;;;;;;;;5032946;28;20250;-76
2024/02/10 01:21:39;;;;;;;15.43;6.95;;;;;;;;;;5035166;28;20570;-76
2024/02/10 01:24:08;;;;;;;18.80;7.38;;;;;;;;;;5028858;28;20545;-76
2024/02/10 01:26:37;;;;;;;14.25;7.18;;;;;;;;;;5023680;28;20182;-76
2024/02/10 01:29:07;;;;;;;18.20;7.18;;;;;;;;;;5022509;28;20190;-76
2024/02/10 01:31:33;;;;;;;12.38;6.97;;;;;;;;;;5015300;28;20240;-76
2024/02/10 01:33:59;;;;;;;11.10;6.95;;;;;;;;;;5028097;28;20653;-76
2024/02/10 01:36:29;;;;;;;13.77;6.72;;;;;;;;;;5031850;28;20274;-76
2024/02/10 01:38:54;;;;;;;18.52;7.38;;;;;;;;;;5034573;28;20561;-77
2024/02/10 01:41:20;;;;;;;15.35;7.25;;;;;;;;;;5015479;28;20186;-76
2024/02/10 01:43:48;;;;;;;13.65;7.40;;;;;;;;;;5030858;28;20194;-76
2024/02/10 01:46:21;;;;;;;13.90;7.43;;;;;;;;;;5021737;28;20202;-76
2024/02/10 01:48:47;;;;;;;16.33;7.55;;;;;;;;;;5032020;28;20194;-76
2024/02/10 01:51:15;;;;;;;16.08;7.03;;;;;;;;;;5029973;28;20640;-76
2024/02/10 01:53:40;;;;;;;15.10;7.07;;;;;;;;;;5038871;28;20566;-76
2024/02/10 01:56:11;;;;;;;20.30;7.10;;;;;;;;;;5033303;28;20237;-76
2024/02/10 01:58:38;;;;;;;11.30;6.75;;;;;;;;;;5024485;28;20217;-76
2024/02/10 02:01:05;;;;;;;13.93;7.05;;;;;;;;;;5038783;28;20217;-76
2024/02/10 02:03:31;;;;;;;15.75;6.68;;;;;;;;;;5030652;28;20198;-76
2024/02/10 02:05:57;;;;;;;16.52;6.70;;;;;;;;;;5029535;28;20197;-76
2024/02/10 02:08:23;;;;;;;15.27;6.90;;;;;;;;;;5025622;28;20213;-76
2024/02/10 02:10:48;;;;;;;13.23;7.22;;;;;;;;;;5020387;28;20197;-76
2024/02/10 02:13:21;;;;;;;10.60;6.35;;;;;;;;;;5017267;28;20573;-76
2024/02/10 02:15:47;;;;;;;11.77;6.70;;;;;;;;;;5020463;28;20936;-76
2024/02/10 02:18:14;;;;;;;13.93;6.00;;;;;;;;;;5027525;28;20390;-76
2024/02/10 02:20:39;;;;;;;13.95;6.85;;;;;;;;;;5031150;28;20208;-76
2024/02/10 02:23:05;;;;;;;12.43;5.75;;;;;;;;;;5036363;28;20194;-76
2024/02/10 02:25:34;;;;;;;16.27;5.95;;;;;;;;;;5019539;28;20194;-76
2024/02/10 02:28:00;;;;;;;13.90;5.95;;;;;;;;;;5028097;28;20193;-76
2024/02/10 02:30:25;;;;;;;10.65;5.90;;;;;;;;;;5023961;28;20558;-76
2024/02/10 02:32:51;;;;;;;10.60;5.70;;;;;;;;;;5034028;28;20583;-76
2024/02/10 02:35:17;;;;;;;10.85;4.80;;;;;;;;;;5036039;28;20193;-76
2024/02/10 02:37:42;;;;;;;10.73;5.28;;;;;;;;;;5040970;28;20541;-76
2024/02/10 02:40:09;;;;;;;8.13;5.10;;;;;;;;;;5029833;28;20205;-76
2024/02/10 02:42:35;;;;;;;11.40;5.45;;;;;;;;;;5035589;28;20284;-76
2024/02/10 02:45:07;;;;;;;10.82;5.18;;;;;;;;;;5037078;28;20544;-76
2024/02/10 02:47:36;;;;;;;11.30;5.18;;;;;;;;;;5012411;28;20280;-76
2024/02/10 02:50:02;;;;;;;13.65;6.15;;;;;;;;;;5041748;28;20174;-76
2024/02/10 02:52:30;;;;;;;12.50;6.15;;;;;;;;;;5025492;28;20626;-75
2024/02/10 02:54:56;;;;;;;11.43;6.05;;;;;;;;;;5031518;28;20594;-76
2024/02/10 02:57:25;;;;;;;13.07;6.78;;;;;;;;;;5037249;28;20272;-76
2024/02/10 02:59:52;;;;;;;12.15;6.18;;;;;;;;;;5029802;28;20615;-76
2024/02/10 03:02:18;;;;;;;13.55;6.70;;;;;;;;;;5032040;28;20558;-76
2024/02/10 03:04:44;;;;;;;10.77;6.25;;;;;;;;;;5033328;28;20193;-76
2024/02/10 03:07:14;;;;;;;15.35;7.32;;;;;;;;;;5021170;28;20189;-76
2024/02/10 03:09:41;;;;;;;11.60;6.88;;;;;;;;;;5037263;28;20181;-76
2024/02/10 03:12:07;;;;;;;13.48;6.82;;;;;;;;;;5046555;28;20200;-76
2024/02/10 03:14:33;;;;;;;11.93;8.05;;;;;;;;;;5029904;28;20186;-76
2024/02/10 03:17:00;;;;;;;15.88;7.32;;;;;;;;;;5004907;28;20237;-76
2024/02/10 03:19:25;;;;;;;16.55;8.20;;;;;;;;;;5034211;28;20560;-76
2024/02/10 03:21:50;;;;;;;16.13;8.88;;;;;;;;;;5034634;28;20201;-76
2024/02/10 03:24:16;;;;;;;13.43;8.38;;;;;;;;;;5040624;28;20206;-76
2024/02/10 03:26:43;;;;;;;14.45;8.63;;;;;;;;;;5017076;28;20182;-76
2024/02/10 03:29:09;;;;;;;17.63;8.50;;;;;;;;;;5016179;28;20208;-76
2024/02/10 03:31:35;;;;;;;16.15;9.18;;;;;;;;;;5016205;28;20182;-76
2024/02/10 03:34:01;;;;;;;15.43;8.77;;;;;;;;;;5028995;28;20243;-76
2024/02/10 03:36:30;;;;;;;15.85;9.23;;;;;;;;;;5025155;28;20210;-76
2024/02/10 03:39:07;;;;;;;13.57;8.18;;;;;;;;;;5026384;28;20217;-76
2024/02/10 03:41:32;;;;;;;16.67;8.77;;;;;;;;;;5025624;28;20250;-76
2024/02/10 03:43:58;;;;;;;16.42;9.25;;;;;;;;;;5027018;28;20178;-76
2024/02/10 03:46:23;;;;;;;15.02;9.20;;;;;;;;;;5023560;28;20194;-76
2024/02/10 03:48:50;;;;;;;15.43;9.70;;;;;;;;;;5033975;28;20186;-75
2024/02/10 03:51:15;;;;;;;18.35;8.90;;;;;;;;;;5035498;28;20603;-76
2024/02/10 03:53:41;;;;;;;17.23;9.10;;;;;;;;;;5043458;28;20181;-76
2024/02/10 03:56:09;;;;;;;14.55;9.30;;;;;;;;;;5036391;28;20197;-76
2024/02/10 03:58:40;;;;;;;15.68;9.70;;;;;;;;;;5028391;28;20307;-76
2024/02/10 04:01:13;;;;;;;18.05;9.70;;;;;;;;;;5017115;28;20198;-76
2024/02/10 04:03:39;;;;;;;13.90;9.68;;;;;;;;;;5029743;28;20212;-76
2024/02/10 04:06:06;;;;;;;17.38;10.32;;;;;;;;;;5039841;28;20189;-76
2024/02/10 04:08:32;;;;;;;19.73;10.23;;;;;;;;;;5018726;28;20229;-76
2024/02/10 04:10:58;;;;;;;16.50;10.38;;;;;;;;;;5014419;28;20307;-76
2024/02/10 04:13:23;;;;;;;23.92;11.32;;;;;;;;;;5032024;28;20593;-76
2024/02/10 04:15:48;;;;;;;18.67;10.60;;;;;;;;;;5032967;28;20197;-76
2024/02/10 04:18:14;;;;;;;21.33;12.05;;;;;;;;;;5024456;28;20281;-76
2024/02/10 04:20:44;;;;;;;20.70;12.23;;;;;;;;;;5010942;28;20203;-76
2024/02/10 04:23:11;;;;;;;22.63;13.60;;;;;;;;;;5029856;28;20186;-76
2024/02/10 04:25:39;;;;;;;23.23;13.27;;;;;;;;;;5013540;28;20219;-75
2024/02/10 04:28:06;;;;;;;24.55;13.48;;;;;;;;;;5028780;28;20622;-76
2024/02/10 04:30:31;;;;;;;27.02;13.07;;;;;;;;;;5027286;28;20189;-76
2024/02/10 04:32:57;;;;;;;21.63;13.50;;;;;;;;;;5041459;28;20191;-76
2024/02/10 04:35:25;;;;;;;22.30;14.23;;;;;;;;;;5039799;28;20197;-76
2024/02/10 04:37:53;;;;;;;28.27;14.95;;;;;;;;;;5033539;28;20186;-76
2024/02/10 04:40:23;;;;;;;38.28;16.00;;;;;;;;;;5021115;28;20194;-76
2024/02/10 04:42:50;;;;;;;25.15;15.18;;;;;;;;;;5044113;28;20245;-76
2024/02/10 04:45:32;;;;;;;30.40;15.57;;;;;;;;;;5039324;28;20233;-76
2024/02/10 04:48:05;;;;;;;33.83;17.15;;;;;;;;;;5032548;28;20518;-76
2024/02/10 04:50:31;;;;;;;26.27;15.05;;;;;;;;;;5027306;28;20179;-76
2024/02/10 04:52:57;;;;;;;31.45;17.05;;;;;;;;;;5026826;28;20268;-76
2024/02/10 04:55:26;;;;;;;28.20;17.23;;;;;;;;;;5017508;28;20631;-76
2024/02/10 04:57:52;;;;;;;35.88;17.67;;;;;;;;;;5014295;28;20193;-76
2024/02/10 05:00:19;;;;;;;31.20;17.20;;;;;;;;;;5024189;28;20197;-76
2024/02/10 05:02:45;;;;;;;34.50;17.83;;;;;;;;;;5032252;28;20185;-77
2024/02/10 05:05:12;;;;;;;31.25;17.73;;;;;;;;;;5028312;28;20186;-76
2024/02/10 05:07:42;;;;;;;33.10;17.73;;;;;;;;;;5024968;28;20280;-76
2024/02/10 05:10:14;;;;;;;30.08;18.13;;;;;;;;;;5034349;28;20191;-76
2024/02/10 05:12:49;;;;;;;30.30;18.50;;;;;;;;;;5031517;28;20186;-76
2024/02/10 05:15:18;;;;;;;33.35;18.65;;;;;;;;;;5030262;28;20185;-76
2024/02/10 05:17:48;;;;;;;35.47;18.65;;;;;;;;;;5034255;28;20236;-76
2024/02/10 05:20:21;;;;;;;33.65;19.15;;;;;;;;;;5037194;28;20268;-76
2024/02/10 05:22:51;;;;;;;38.80;19.90;;;;;;;;;;5027427;28;20194;-76
2024/02/10 05:25:21;;;;;;;34.08;18.77;;;;;;;;;;5036546;28;20192;-76
2024/02/10 05:27:48;;;;;;;35.30;18.30;;;;;;;;;;5031256;28;20178;-76
2024/02/10 05:30:19;;;;;;;43.28;20.42;;;;;;;;;;5019074;28;20186;-76
2024/02/10 05:32:45;;;;;;;37.80;20.73;;;;;;;;;;5014479;28;20189;-77
2024/02/10 05:35:18;;;;;;;37.35;20.05;;;;;;;;;;5031085;28;20723;-76
2024/02/10 05:37:47;;;;;;;38.28;20.10;;;;;;;;;;5040246;28;20190;-76
2024/02/10 05:40:14;;;;;;;37.78;19.95;;;;;;;;;;5022687;28;20213;-76
2024/02/10 05:42:42;;;;;;;38.88;19.95;;;;;;;;;;5016971;28;20218;-76
2024/02/10 05:45:08;;;;;;;40.55;20.75;;;;;;;;;;5039545;28;20770;-76
2024/02/10 05:47:34;;;;;;;35.00;20.05;;;;;;;;;;5032353;28;20248;-76
2024/02/10 05:50:16;;;;;;;41.80;21.10;;;;;;;;;;5032309;28;20186;-76
2024/02/10 05:52:52;;;;;;;45.47;23.13;;;;;;;;;;5029209;28;20678;-75
2024/02/10 05:55:25;;;;;;;47.10;23.42;;;;;;;;;;5018191;28;20508;-75
2024/02/10 05:57:54;;;;;;;45.58;22.20;;;;;;;;;;5029730;28;20181;-76
2024/02/10 06:00:20;;;;;;;47.47;23.58;;;;;;;;;;5044445;28;20220;-76
2024/02/10 06:02:47;;;;;;;43.53;22.42;;;;;;;;;;5032958;28;20194;-75
2024/02/10 06:05:13;;;;;;;47.88;23.83;;;;;;;;;;5012758;28;20555;-75
2024/02/10 06:07:41;;;;;;;46.58;23.63;;;;;;;;;;5030578;28;20201;-75
2024/02/10 06:10:12;;;;;;;47.90;24.05;;;;;;;;;;5010707;28;20612;-76
2024/02/10 06:12:45;;;;;;;52.75;24.95;;;;;;;;;;5033049;28;20202;-76
2024/02/10 06:15:12;;;;;;;55.08;25.25;;;;;;;;;;5026274;28;20178;-76
2024/02/10 06:17:42;;;;;;;46.63;22.55;;;;;;;;;;5038652;28;20236;-76
2024/02/10 06:20:14;;;;;;;50.05;24.52;;;;;;;;;;5039475;28;20229;-75
2024/02/10 06:22:48;;;;;;;52.30;23.77;;;;;;;;;;5047944;28;20265;-75
2024/02/10 06:25:15;;;;;;;54.38;26.30;;;;;;;;;;5018295;28;20182;-76
2024/02/10 06:27:45;;;;;;;54.72;25.92;;;;;;;;;;5030351;28;20264;-75
2024/02/10 06:30:13;;;;;;;57.67;26.30;;;;;;;;;;5028739;28;20213;-76
2024/02/10 06:32:39;;;;;;;48.85;25.88;;;;;;;;;;5034432;28;20295;-76
2024/02/10 06:35:06;;;;;;;52.33;26.17;;;;;;;;;;5042272;28;20295;-75
2024/02/10 06:37:32;;;;;;;52.15;26.92;;;;;;;;;;5028214;28;20277;-76
2024/02/10 06:39:58;;;;;;;56.72;27.77;;;;;;;;;;5023746;28;20649;-76
2024/02/10 06:42:25;;;;;;;49.75;25.35;;;;;;;;;;5029036;28;20186;-76
2024/02/10 06:44:51;;;;;;;56.38;25.92;;;;;;;;;;5019027;28;20194;-76
2024/02/10 06:47:17;;;;;;;56.55;26.25;;;;;;;;;;5039522;28;20197;-76
2024/02/10 06:49:42;;;;;;;50.90;24.65;;;;;;;;;;5046079;28;20699;-76
2024/02/10 06:52:08;;;;;;;41.90;23.25;;;;;;;;;;5040146;28;20205;-76
2024/02/10 06:54:34;;;;;;;44.97;23.80;;;;;;;;;;5017306;28;20195;-76
2024/02/10 06:57:02;;;;;;;41.63;22.40;;;;;;;;;;5001864;28;20205;-76
2024/02/10 06:59:28;;;;;;;46.13;23.60;;;;;;;;;;5027973;28;20237;-76
2024/02/10 07:01:56;;;;;;;41.08;22.27;;;;;;;;;;5024149;28;20646;-76
2024/02/10 07:04:23;;;;;;;43.17;22.98;;;;;;;;;;5025265;28;20265;-76
2024/02/10 07:06:53;;;;;;;38.05;21.30;;;;;;;;;;5018337;28;20201;-76
2024/02/10 07:09:22;;;;;;;36.75;20.95;;;;;;;;;;5010720;28;20186;-76
2024/02/10 07:11:49;;;;;;;37.63;20.83;;;;;;;;;;5026560;28;20266;-76
2024/02/10 07:14:17;;;;;;;38.85;20.73;;;;;;;;;;5010136;28;20183;-76
2024/02/10 07:16:42;;;;;;;35.05;20.55;;;;;;;;;;5017508;28;20554;-76
2024/02/10 07:19:10;;;;;;;34.05;19.35;;;;;;;;;;5026996;28;20214;-76
2024/02/10 07:21:36;;;;;;;37.53;19.75;;;;;;;;;;5030648;28;20186;-76
2024/02/10 07:24:05;;;;;;;34.47;19.38;;;;;;;;;;5034290;28;20217;-76
2024/02/10 07:26:34;;;;;;;30.88;18.20;;;;;;;;;;5000632;28;20706;-76
2024/02/10 07:29:01;;;;;;;32.85;18.60;;;;;;;;;;5010837;28;20178;-76
2024/02/10 07:31:26;;;;;;;37.42;19.05;;;;;;;;;;5018055;28;20195;-76
2024/02/10 07:33:58;;;;;;;31.27;16.67;;;;;;;;;;5033086;28;20185;-75
2024/02/10 07:36:32;;;;;;;30.08;17.65;;;;;;;;;;5029791;28;20186;-75
2024/02/10 07:38:59;;;;;;;31.60;18.02;;;;;;;;;;5030129;28;20214;-77
2024/02/10 07:41:24;;;;;;;31.83;18.02;;;;;;;;;;5015990;28;20230;-75
2024/02/10 07:43:50;;;;;;;35.10;18.35;;;;;;;;;;5035133;28;20233;-77
2024/02/10 07:46:16;;;;;;;28.17;16.10;;;;;;;;;;5034919;28;20269;-76
2024/02/10 07:48:42;;;;;;;27.90;16.50;;;;;;;;;;5032376;28;20173;-76
2024/02/10 07:51:08;;;;;;;32.70;17.13;;;;;;;;;;5034712;28;20649;-76
2024/02/10 07:53:33;;;;;;;25.35;15.50;;;;;;;;;;5027941;28;20378;-76
2024/02/10 07:55:59;;;;;;;30.42;16.77;;;;;;;;;;5022259;28;20197;-75
2024/02/10 07:58:26;;;;;;;26.83;15.60;;;;;;;;;;5024545;28;20311;-76
2024/02/10 08:00:52;;;;;;;23.90;14.52;;;;;;;;;;5039312;28;20255;-76
2024/02/10 08:03:19;;;;;;;25.75;14.68;;;;;;;;;;5025816;28;20641;-76
2024/02/10 08:05:48;;;;;;;25.88;14.48;;;;;;;;;;5030315;28;20224;-76
2024/02/10 08:08:13;;;;;;;20.90;13.40;;;;;;;;;;5022933;28;20194;-77
2024/02/10 08:10:39;;;;;;;20.23;13.07;;;;;;;;;;5032498;28;20179;-76
2024/02/10 08:13:04;;;;;;;22.30;13.15;;;;;;;;;;5022531;28;20198;-76
2024/02/10 08:15:31;;;;;;;23.60;12.65;;;;;;;;;;5042200;28;20170;-76
2024/02/10 08:18:00;;;;;;;19.95;13.05;;;;;;;;;;5002961;28;20313;-76
2024/02/10 08:20:28;;;;;;;19.23;11.32;;;;;;;;;;5022823;28;20225;-76
2024/02/10 08:22:54;;;;;;;20.40;11.07;;;;;;;;;;5027532;28;20189;-76
2024/02/10 08:25:20;;;;;;;19.25;10.73;;;;;;;;;;5006733;28;20183;-76
2024/02/10 08:27:46;;;;;;;18.60;10.95;;;;;;;;;;5030901;28;20627;-77
2024/02/10 08:30:16;;;;;;;17.30;11.43;;;;;;;;;;5019491;28;20213;-77
2024/02/10 08:32:42;;;;;;;18.02;11.50;;;;;;;;;;5041261;28;20193;-76
2024/02/10 08:35:07;;;;;;;15.50;10.98;;;;;;;;;;5037858;28;20657;-76
2024/02/10 08:37:33;;;;;;;15.45;10.70;;;;;;;;;;5017971;28;20200;-76
2024/02/10 08:39:58;;;;;;;18.65;11.65;;;;;;;;;;5049052;28;20213;-76
2024/02/10 08:42:24;;;;;;;18.73;11.18;;;;;;;;;;5024256;28;20630;-76
2024/02/10 08:44:50;;;;;;;19.52;11.10;;;;;;;;;;5027453;28;20197;-76
2024/02/10 08:47:15;;;;;;;15.10;10.98;;;;;;;;;;5027609;28;20597;-76
2024/02/10 08:49:42;;;;;;;20.88;10.55;;;;;;;;;;5035774;28;20220;-76
2024/02/10 08:52:16;;;;;;;16.30;10.30;;;;;;;;;;5029711;28;20183;-76
2024/02/10 08:54:43;;;;;;;15.98;10.43;;;;;;;;;;5030578;28;20195;-76
2024/02/10 08:57:09;;;;;;;16.30;10.20;;;;;;;;;;5018774;28;20714;-76
2024/02/10 08:59:43;;;;;;;15.25;10.27;;;;;;;;;;5031999;28;20340;-76
2024/02/10 09:02:09;;;;;;;16.50;9.73;;;;;;;;;;5029950;28;20186;-76
2024/02/10 09:04:36;;;;;;;19.75;10.00;;;;;;;;;;5030719;28;20196;-76
2024/02/10 09:07:02;;;;;;;16.25;9.27;;;;;;;;;;5036579;28;20173;-76
2024/02/10 09:09:28;;;;;;;13.05;9.10;;;;;;;;;;5035822;28;20182;-76
2024/02/10 09:11:54;;;;;;;13.25;8.90;;;;;;;;;;5033822;28;20192;-76
2024/02/10 09:14:19;;;;;;;18.58;9.02;;;;;;;;;;5028689;28;20201;-76
2024/02/10 09:16:46;;;;;;;11.82;8.25;;;;;;;;;;5037031;28;20189;-75
2024/02/10 09:19:19;;;;;;;14.75;7.30;;;;;;;;;;5030585;28;20303;-76
2024/02/10 09:22:00;;;;;;;8.50;6.47;;;;;;;;;;5021938;28;20194;-76
2024/02/10 09:24:26;;;;;;;8.18;6.53;;;;;;;;;;5033719;28;20689;-75
2024/02/10 09:26:55;;;;;;;12.10;6.50;;;;;;;;;;5030406;28;20328;-76
2024/02/10 09:29:21;;;;;;;11.73;7.43;;;;;;;;;;5015328;28;20273;-75
2024/02/10 09:31:47;;;;;;;10.88;6.75;;;;;;;;;;5029641;28;20276;-75
2024/02/10 09:34:13;;;;;;;8.43;6.35;;;;;;;;;;5029430;28;20289;-75
2024/02/10 09:36:43;;;;;;;9.25;6.45;;;;;;;;;;5043390;28;20193;-75
2024/02/10 09:39:09;;;;;;;8.73;6.13;;;;;;;;;;5034399;28;20212;-75
2024/02/10 09:41:35;;;;;;;10.02;5.72;;;;;;;;;;5033494;28;20292;-75
2024/02/10 09:44:03;;;;;;;8.15;5.85;;;;;;;;;;5027551;28;20182;-75
2024/02/10 09:46:35;;;;;;;7.78;5.57;;;;;;;;;;5026513;28;20194;-76
2024/02/10 09:49:07;;;;;;;7.00;5.25;;;;;;;;;;5028277;28;20178;-76
2024/02/10 09:51:37;;;;;;;9.20;4.97;;;;;;;;;;5029743;28;20194;-75
2024/02/10 09:54:04;;;;;;;5.75;4.97;;;;;;;;;;5022456;28;20201;-76
2024/02/10 09:56:33;;;;;;;7.05;4.68;;;;;;;;;;5039042;28;20173;-76
2024/02/10 09:58:59;;;;;;;6.05;5.00;;;;;;;;;;5008435;28;20206;-75
2024/02/10 10:01:37;;;;;;;4.95;3.88;;;;;;;;;;5031671;28;20190;-75
2024/02/10 10:04:02;;;;;;;6.45;4.45;;;;;;;;;;5029351;28;20194;-75
2024/02/10 10:06:28;;;;;;;6.63;4.32;;;;;;;;;;5028655;28;20192;-75
2024/02/10 10:08:53;;;;;;;8.07;4.28;;;;;;;;;;5033203;28;20544;-75
2024/02/10 10:11:20;;;;;;;5.30;4.05;;;;;;;;;;5045835;28;20186;-75
2024/02/10 10:13:46;;;;;;;8.75;3.55;;;;;;;;;;5037642;28;20271;-75
2024/02/10 10:16:12;;;;;;;4.47;3.55;;;;;;;;;;5025022;28;20198;-76
2024/02/10 10:18:37;;;;;;;4.82;3.40;;;;;;;;;;5029042;28;20341;-77
2024/02/10 10:21:10;;;;;;;5.25;3.88;;;;;;;;;;5048781;28;20651;-76
2024/02/10 10:23:36;;;;;;;4.82;3.75;;;;;;;;;;5033263;28;20534;-76
2024/02/10 10:26:02;;;;;;;4.68;3.60;;;;;;;;;;5021447;28;20252;-76
2024/02/10 10:28:30;;;;;;;4.47;3.65;;;;;;;;;;5006850;28;20326;-76
2024/02/10 10:30:58;;;;;;;3.90;3.45;;;;;;;;;;5023904;28;20246;-76
2024/02/10 10:33:25;;;;;;;5.82;3.65;;;;;;;;;;5036928;28;20538;-76
2024/02/10 10:35:54;;;;;;;6.97;3.28;;;;;;;;;;5033048;28;20218;-76
2024/02/10 10:38:24;;;;;;;6.93;3.85;;;;;;;;;;5022919;28;20198;-76
2024/02/10 10:40:53;;;;;;;5.55;3.47;;;;;;;;;;5032734;28;20302;-77
2024/02/10 10:43:22;;;;;;;4.50;3.63;;;;;;;;;;5033821;28;20189;-76
2024/02/10 10:45:49;;;;;;;4.95;3.58;;;;;;;;;;5037382;28;20220;-76
2024/02/10 10:48:15;;;;;;;5.47;3.05;;;;;;;;;;5031015;28;20194;-76
2024/02/10 10:50:41;;;;;;;4.85;3.20;;;;;;;;;;5037001;28;20188;-76
2024/02/10 10:53:09;;;;;;;6.07;3.33;;;;;;;;;;5047792;28;20189;-77
2024/02/10 10:55:53;;;;;;;6.30;3.13;;;;;;;;;;5031746;28;20191;-76
2024/02/10 10:58:24;;;;;;;6.25;3.97;;;;;;;;;;5037134;28;20675;-76
2024/02/10 11:00:51;;;;;;;5.43;3.25;;;;;;;;;;5030907;28;20217;-76
2024/02/10 11:03:18;;;;;;;4.03;3.25;;;;;;;;;;5015975;28;20661;-76
2024/02/10 11:05:50;;;;;;;4.88;3.15;;;;;;;;;;5035229;28;20188;-76
2024/02/10 11:08:25;;;;;;;4.50;2.95;;;;;;;;;;5008248;28;20197;-76
2024/02/10 11:10:56;;;;;;;2.90;2.53;;;;;;;;;;5020892;28;20185;-76
2024/02/10 11:13:22;;;;;;;4.43;3.03;;;;;;;;;;5023181;28;20198;-76
2024/02/10 11:16:12;;;;;;;3.80;2.80;;;;;;;;;;5027728;28;20213;-76
2024/02/10 11:19:02;;;;;;;5.57;3.53;;;;;;;;;;5025175;28;20559;-76
2024/02/10 11:21:31;;;;;;;4.07;3.42;;;;;;;;;;5016842;28;20298;-76
2024/02/10 11:24:15;;;;;;;4.65;3.35;;;;;;;;;;5019520;28;20217;-76
2024/02/10 11:26:41;;;;;;;3.83;2.70;;;;;;;;;;5048586;28;20196;-76
2024/02/10 11:29:09;;;;;;;3.83;2.47;;;;;;;;;;5019617;28;20186;-76
2024/02/10 11:31:41;;;;;;;4.25;2.47;;;;;;;;;;5029486;28;20261;-76
2024/02/10 11:34:17;;;;;;;3.08;1.90;;;;;;;;;;5029745;28;20681;-76
2024/02/10 11:36:53;;;;;;;2.55;2.00;;;;;;;;;;5023689;28;20600;-76
2024/02/10 11:39:21;;;;;;;5.05;2.40;;;;;;;;;;5023502;28;20226;-76
2024/02/10 11:41:47;;;;;;;2.63;1.70;;;;;;;;;;5038024;28;20193;-77
2024/02/10 11:44:15;;;;;;;3.03;1.92;;;;;;;;;;5026898;28;20252;-76
2024/02/10 11:46:41;;;;;;;3.35;2.40;;;;;;;;;;5032904;28;20182;-75
2024/02/10 11:49:06;;;;;;;7.88;2.22;;;;;;;;;;5009685;28;20186;-76
2024/02/10 11:51:34;;;;;;;3.85;2.53;;;;;;;;;;5038139;28;20281;-76
2024/02/10 11:54:00;;;;;;;4.82;3.17;;;;;;;;;;5026386;28;20186;-75
2024/02/10 11:56:25;;;;;;;6.10;2.20;;;;;;;;;;5004964;28;20190;-75
2024/02/10 11:58:51;;;;;;;3.40;2.08;;;;;;;;;;5034596;28;20605;-75
2024/02/10 12:01:17;;;;;;;5.05;1.90;;;;;;;;;;5030779;28;20197;-75
2024/02/10 12:03:43;;;;;;;4.22;1.63;;;;;;;;;;5027440;28;20332;-76
2024/02/10 12:06:12;;;;;;;2.28;1.45;;;;;;;;;;5026865;28;20294;-75
2024/02/10 12:08:42;;;;;;;2.45;1.30;;;;;;;;;;5035267;28;20686;-75
2024/02/10 12:11:09;;;;;;;1.73;1.27;;;;;;;;;;5030151;28;20175;-75
2024/02/10 12:13:34;;;;;;;2.85;1.65;;;;;;;;;;5035782;28;20221;-75
2024/02/10 12:16:01;;;;;;;2.47;1.30;;;;;;;;;;5041389;28;20235;-75
2024/02/10 12:18:29;;;;;;;3.42;1.30;;;;;;;;;;5035116;28;20233;-75
2024/02/10 12:20:54;;;;;;;2.20;1.30;;;;;;;;;;5035352;28;20296;-75
2024/02/10 12:23:20;;;;;;;3.33;1.85;;;;;;;;;;5040042;28;20265;-75
2024/02/10 12:25:45;;;;;;;4.55;1.60;;;;;;;;;;5042233;28;20328;-75
2024/02/10 12:28:11;;;;;;;3.63;1.15;;;;;;;;;;5027404;28;20187;-75
2024/02/10 12:30:36;;;;;;;4.05;1.40;;;;;;;;;;5027718;28;20197;-76
2024/02/10 12:33:01;;;;;;;4.57;1.67;;;;;;;;;;5035550;28;20194;-75
2024/02/10 12:35:27;;;;;;;4.28;1.70;;;;;;;;;;5025617;28;20193;-75
2024/02/10 12:37:52;;;;;;;4.03;1.50;;;;;;;;;;5029960;28;20445;-75
2024/02/10 12:40:20;;;;;;;6.57;1.92;;;;;;;;;;5028463;28;20264;-75
2024/02/10 12:42:46;;;;;;;4.28;1.92;;;;;;;;;;5027996;28;20185;-75
2024/02/10 12:45:13;;;;;;;6.30;1.77;;;;;;;;;;5032970;28;20533;-75
2024/02/10 12:47:42;;;;;;;3.13;1.58;;;;;;;;;;5026885;28;20224;-75
2024/02/10 12:50:08;;;;;;;3.85;1.50;;;;;;;;;;5027357;28;20187;-75
2024/02/10 12:52:35;;;;;;;4.20;1.30;;;;;;;;;;5012433;28;20189;-75
2024/02/10 12:55:01;;;;;;;5.57;2.30;;;;;;;;;;5026960;28;20684;-75
2024/02/10 12:57:27;;;;;;;3.85;1.85;;;;;;;;;;5025681;28;20265;-76
2024/02/10 12:59:55;;;;;;;4.22;1.90;;;;;;;;;;5021771;28;20219;-76
2024/02/10 13:02:21;;;;;;;5.18;2.00;;;;;;;;;;5032316;28;20193;-76
2024/02/10 13:04:47;;;;;;;4.85;2.40;;;;;;;;;;5025693;28;20697;-77
2024/02/10 13:07:16;;;;;;;3.90;2.22;;;;;;;;;;5028667;28;20190;-76
2024/02/10 13:09:43;;;;;;;3.55;2.67;;;;;;;;;;5027161;28;20209;-76
2024/02/10 13:12:08;;;;;;;3.45;2.47;;;;;;;;;;5039033;28;20185;-76
2024/02/10 13:14:34;;;;;;;6.93;2.25;;;;;;;;;;5033049;28;20292;-76
2024/02/10 13:16:59;;;;;;;4.97;2.40;;;;;;;;;;5040729;28;20258;-76
2024/02/10 13:19:25;;;;;;;8.02;2.65;;;;;;;;;;5010700;28;20246;-75
2024/02/10 13:21:51;;;;;;;11.05;3.20;;;;;;;;;;5030157;28;20186;-76
2024/02/10 13:24:17;;;;;;;5.22;2.63;;;;;;;;;;5029298;28;20525;-75
2024/02/10 13:26:44;;;;;;;11.02;2.72;;;;;;;;;;5031039;28;20551;-76
2024/02/10 13:29:10;;;;;;;5.22;2.40;;;;;;;;;;5030469;28;20181;-76
2024/02/10 13:31:35;;;;;;;4.97;2.67;;;;;;;;;;5031120;28;20269;-76
2024/02/10 13:34:01;;;;;;;6.60;2.53;;;;;;;;;;5028608;28;20210;-76
2024/02/10 14:00:38;;;;;;;3.03;2.55;;;;;;;;;;5040273;28;20309;-76
2024/02/10 14:03:05;;;;;;;4.25;2.60;;;;;;;;;;5047432;28;20641;-76
2024/02/10 14:10:55;;;;;;;5.38;3.10;;;;;;;;;;5034678;28;20220;-75
2024/02/10 14:13:24;;;;;;;4.50;3.00;;;;;;;;;;5034466;28;20231;-75
2024/02/10 14:15:54;;;;;;;5.15;3.20;;;;;;;;;;5020399;28;20269;-75
2024/02/10 14:18:25;;;;;;;5.75;2.75;;;;;;;;;;5040403;28;20244;-74
2024/02/10 14:21:17;;;;;;;4.53;2.70;;;;;;;;;;5034312;28;20253;-75
2024/02/10 14:23:44;;;;;;;5.50;2.58;;;;;;;;;;5017116;28;20197;-75
2024/02/10 14:26:14;;;;;;;4.57;2.60;;;;;;;;;;5036750;28;20196;-75
2024/02/10 14:28:52;;;;;;;5.18;2.30;;;;;;;;;;5040358;28;20532;-75
2024/02/10 14:31:19;;;;;;;3.60;2.08;;;;;;;;;;5032968;28;20565;-75
2024/02/10 14:33:53;;;;;;;5.75;2.42;;;;;;;;;;5021631;28;20570;-75
2024/02/10 14:37:26;;;;;;;2.90;2.10;;;;;;;;;;5013747;28;20190;-75
2024/02/10 14:39:14;;;;;;;4.45;2.33;;;;;;;;;;5013391;28;20218;-74
2024/02/10 14:41:43;;;;;;;3.25;2.85;;;;;;;;;;5033484;28;20300;-74
2024/02/10 14:44:10;;;;;;;3.55;2.28;;;;;;;;;;5009828;28;20538;-74
2024/02/10 14:46:43;;;;;;;3.22;2.20;;;;;;;;;;5047965;28;20299;-75
2024/02/10 14:49:13;;;;;;;4.32;2.63;;;;;;;;;;5046426;28;20187;-75
2024/02/10 14:51:39;;;;;;;4.95;2.40;;;;;;;;;;5040210;28;20244;-75
2024/02/10 14:54:08;;;;;;;5.50;2.90;;;;;;;;;;5038568;28;20198;-75
2024/02/10 14:56:34;;;;;;;4.22;3.47;;;;;;;;;;5043910;28;20258;-75
2024/02/10 14:59:01;;;;;;;4.18;3.40;;;;;;;;;;5016216;28;20203;-75
2024/02/10 15:01:30;;;;;;;4.65;3.72;;;;;;;;;;5025070;28;20258;-75
2024/02/10 15:03:56;;;;;;;6.22;3.80;;;;;;;;;;5038891;28;20514;-75